Time;durP1;ratioP1;P1;durP2;ratioP2;P2;SDS_P1;SDS_P2;PMS_P1;PMS_P2;Temp;Humidity;BMP_temperature;BMP_pressure;BME280_temperature;BME280_humidity;BME280_pressure;Samples;Min_cycle;Max_cycle;Signal;HPM_P1;HPM_P2
2021/05/24 00:00:01;;;;;;;5.40;2.70;;;9.80;99.90;;;;;;5030433;28;20036;-46
2021/05/24 00:02:26;;;;;;;4.45;2.38;;;9.70;99.90;;;;;;5039437;28;20037;-46
2021/05/24 00:04:52;;;;;;;7.10;2.30;;;9.70;99.90;;;;;;5039605;28;20026;-45
2021/05/24 00:07:18;;;;;;;6.80;2.45;;;9.70;99.90;;;;;;5038730;28;20026;-45
2021/05/24 00:09:45;;;;;;;6.60;2.47;;;9.60;99.90;;;;;;5040365;28;20033;-46
2021/05/24 00:12:11;;;;;;;5.55;2.95;;;9.60;99.90;;;;;;5040024;28;20087;-46
2021/05/24 00:14:39;;;;;;;4.40;2.53;;;9.60;99.90;;;;;;5036433;28;20064;-46
2021/05/24 00:17:06;;;;;;;7.30;2.90;;;9.60;99.90;;;;;;5040160;28;20514;-45
2021/05/24 00:19:31;;;;;;;4.60;3.28;;;9.60;99.90;;;;;;5037591;28;20025;-45
2021/05/24 00:21:57;;;;;;;7.25;3.53;;;9.60;99.90;;;;;;5040137;28;20032;-44
2021/05/24 00:24:22;;;;;;;5.63;3.35;;;9.60;99.90;;;;;;5036278;28;20033;-44
2021/05/24 00:26:48;;;;;;;3.63;2.85;;;9.60;99.90;;;;;;5035667;28;20029;-46
2021/05/24 00:29:18;;;;;;;7.53;3.00;;;9.60;99.90;;;;;;5037304;28;20103;-45
2021/05/24 00:31:45;;;;;;;5.70;2.95;;;9.60;99.90;;;;;;5038707;28;20057;-46
2021/05/24 00:34:12;;;;;;;7.10;3.72;;;9.60;99.90;;;;;;5036383;28;20033;-46
2021/05/24 00:36:38;;;;;;;9.15;3.35;;;9.60;99.90;;;;;;5038138;28;20028;-45
2021/05/24 00:39:08;;;;;;;5.28;3.15;;;9.50;99.90;;;;;;5036707;28;20295;-46
2021/05/24 00:41:39;;;;;;;10.02;3.80;;;9.50;99.90;;;;;;5040722;28;20025;-46
2021/05/24 00:44:06;;;;;;;6.70;3.38;;;9.50;99.90;;;;;;5039826;28;20013;-47
2021/05/24 00:46:32;;;;;;;5.43;2.75;;;9.50;99.90;;;;;;5038733;28;20051;-46
2021/05/24 00:48:58;;;;;;;4.80;3.13;;;9.50;99.90;;;;;;5038842;28;20498;-46
2021/05/24 00:51:24;;;;;;;7.57;3.30;;;9.50;99.90;;;;;;5039022;28;20021;-46
2021/05/24 00:53:50;;;;;;;4.32;3.10;;;9.50;99.90;;;;;;5036707;28;20027;-49
2021/05/24 00:56:16;;;;;;;5.85;3.13;;;9.50;99.90;;;;;;5038263;28;20382;-47
2021/05/24 00:58:41;;;;;;;7.25;3.35;;;9.50;99.90;;;;;;5035520;28;20037;-48
2021/05/24 01:01:07;;;;;;;5.32;3.40;;;9.60;99.90;;;;;;5038418;28;20423;-49
2021/05/24 01:03:33;;;;;;;5.28;2.70;;;9.60;99.90;;;;;;5038966;28;20027;-48
2021/05/24 01:05:59;;;;;;;7.28;3.13;;;9.60;99.90;;;;;;5039300;28;20028;-46
2021/05/24 01:08:24;;;;;;;7.03;3.00;;;9.60;99.90;;;;;;5036174;28;20038;-46
2021/05/24 01:10:50;;;;;;;7.55;3.22;;;9.70;99.90;;;;;;5039020;28;20435;-46
2021/05/24 01:13:16;;;;;;;4.13;2.65;;;9.70;99.90;;;;;;5039993;28;20434;-47
2021/05/24 01:15:42;;;;;;;3.05;2.10;;;9.70;99.90;;;;;;5037218;28;20049;-46
2021/05/24 01:18:08;;;;;;;7.70;3.03;;;9.70;99.90;;;;;;5038389;28;20075;-46
2021/05/24 01:20:35;;;;;;;5.32;2.70;;;9.70;99.90;;;;;;5038623;28;20017;-46
2021/05/24 01:25:30;;;;;;;5.43;2.53;;;9.60;99.90;;;;;;5037362;28;20027;-46
2021/05/24 01:27:56;;;;;;;4.05;2.40;;;9.70;99.90;;;;;;5044741;28;20450;-46
2021/05/24 01:30:22;;;;;;;3.80;2.53;;;9.70;99.90;;;;;;5048704;28;20087;-46
2021/05/24 01:32:48;;;;;;;10.00;2.60;;;9.70;99.90;;;;;;5047711;28;20060;-46
2021/05/24 01:35:13;;;;;;;2.35;2.15;;;9.80;99.90;;;;;;5048319;28;20470;-46
2021/05/24 01:37:39;;;;;;;4.43;2.25;;;9.70;99.90;;;;;;5032344;28;20056;-48
2021/05/24 01:40:05;;;;;;;7.40;2.20;;;9.70;99.90;;;;;;5027185;28;20025;-45
2021/05/24 01:42:31;;;;;;;5.80;2.50;;;9.70;99.90;;;;;;5028409;28;20025;-46
2021/05/24 01:44:57;;;;;;;4.63;2.35;;;9.70;99.90;;;;;;5028509;28;20632;-45
2021/05/24 01:47:22;;;;;;;2.83;1.88;;;9.70;99.90;;;;;;5027157;28;20463;-48
2021/05/24 01:49:48;;;;;;;4.57;2.05;;;9.70;99.90;;;;;;5028444;28;20033;-48
2021/05/24 01:52:15;;;;;;;6.70;2.45;;;9.80;99.90;;;;;;5028743;28;20032;-47
2021/05/24 01:54:42;;;;;;;6.35;2.30;;;9.70;99.90;;;;;;5028356;28;20080;-46
2021/05/24 01:57:09;;;;;;;4.45;2.13;;;9.80;99.90;;;;;;5028352;28;20074;-47
2021/05/24 01:59:35;;;;;;;3.95;2.17;;;9.70;99.90;;;;;;5026604;28;20514;-46
2021/05/24 02:02:01;;;;;;;2.90;2.30;;;9.70;99.90;;;;;;5028462;28;20177;-48
2021/05/24 02:04:27;;;;;;;4.60;2.33;;;9.70;99.90;;;;;;5028289;28;20410;-46
2021/05/24 02:06:52;;;;;;;4.10;2.65;;;9.70;99.90;;;;;;5035535;28;20021;-47
2021/05/24 02:09:18;;;;;;;5.40;2.92;;;9.70;99.90;;;;;;5046297;28;20494;-49
2021/05/24 02:11:43;;;;;;;4.75;2.65;;;9.60;99.90;;;;;;5047970;28;20497;-47
2021/05/24 02:14:09;;;;;;;3.85;2.70;;;9.60;99.90;;;;;;5048135;28;20079;-47
2021/05/24 02:16:40;;;;;;;6.90;2.65;;;9.60;99.90;;;;;;5048209;28;20433;-46
2021/05/24 02:19:08;;;;;;;3.88;2.20;;;9.60;99.90;;;;;;5047626;28;20542;-46
2021/05/24 02:21:34;;;;;;;5.95;2.17;;;9.50;99.90;;;;;;5046788;28;20029;-46
2021/05/24 02:23:59;;;;;;;3.10;2.05;;;9.50;99.90;;;;;;5046884;28;20034;-46
2021/05/24 02:26:25;;;;;;;5.97;2.08;;;9.50;99.90;;;;;;5047864;28;20082;-47
2021/05/24 02:28:50;;;;;;;3.13;2.30;;;9.50;99.90;;;;;;5047705;28;20052;-47
2021/05/24 02:31:16;;;;;;;7.65;2.58;;;9.50;99.90;;;;;;5048186;28;20398;-46
2021/05/24 02:33:41;;;;;;;5.72;2.17;;;9.50;99.90;;;;;;5046976;28;20017;-46
2021/05/24 02:36:07;;;;;;;4.82;2.85;;;9.50;99.90;;;;;;5048252;28;20500;-46
2021/05/24 02:38:33;;;;;;;3.63;2.10;;;9.40;99.90;;;;;;5047581;28;20021;-46
2021/05/24 02:40:59;;;;;;;4.28;2.35;;;9.40;99.90;;;;;;5045176;28;20031;-46
2021/05/24 02:43:24;;;;;;;4.55;2.20;;;9.50;99.90;;;;;;5027436;28;20028;-47
2021/05/24 02:45:50;;;;;;;5.75;2.00;;;9.50;99.90;;;;;;5028028;28;20398;-46
2021/05/24 02:48:15;;;;;;;3.30;2.10;;;9.60;99.90;;;;;;5028943;28;20037;-45
2021/05/24 02:50:41;;;;;;;5.85;2.40;;;9.60;99.90;;;;;;5031832;28;20033;-46
2021/05/24 02:53:07;;;;;;;3.92;2.33;;;9.50;99.90;;;;;;5031687;28;20033;-46
2021/05/24 02:55:32;;;;;;;2.35;2.10;;;9.50;99.90;;;;;;5030260;28;20505;-45
2021/05/24 02:57:58;;;;;;;3.10;2.38;;;9.50;99.90;;;;;;5030963;28;20475;-45
2021/05/24 03:00:27;;;;;;;5.15;2.20;;;9.40;99.90;;;;;;5030279;28;20021;-46
2021/05/24 03:02:52;;;;;;;4.63;2.10;;;9.40;99.90;;;;;;5031799;28;20463;-46
2021/05/24 03:05:20;;;;;;;3.70;2.55;;;9.30;99.90;;;;;;5031306;28;20108;-46
2021/05/24 03:07:46;;;;;;;4.03;2.22;;;9.40;99.90;;;;;;5029191;28;20030;-46
2021/05/24 03:10:14;;;;;;;3.63;2.10;;;9.40;99.90;;;;;;5031145;28;20037;-45
2021/05/24 03:12:39;;;;;;;4.75;2.42;;;9.40;99.90;;;;;;5030935;28;20104;-45
2021/05/24 03:15:06;;;;;;;4.75;2.65;;;9.30;99.90;;;;;;5031249;28;20052;-45
2021/05/24 03:17:32;;;;;;;3.25;2.40;;;9.30;99.90;;;;;;5029914;28;20022;-44
2021/05/24 03:19:57;;;;;;;3.05;2.50;;;9.30;99.90;;;;;;5031012;28;20018;-44
2021/05/24 03:22:23;;;;;;;3.67;2.67;;;9.30;99.90;;;;;;5030991;28;20030;-46
2021/05/24 03:24:49;;;;;;;7.07;2.40;;;9.20;99.90;;;;;;5040375;28;20442;-45
2021/05/24 03:27:14;;;;;;;2.75;2.40;;;9.20;99.90;;;;;;5040559;28;20025;-45
2021/05/24 03:29:40;;;;;;;3.13;2.33;;;9.30;99.90;;;;;;5041171;28;20401;-45
2021/05/24 03:32:06;;;;;;;4.75;2.28;;;9.20;99.90;;;;;;5039382;28;20368;-45
2021/05/24 03:34:31;;;;;;;6.20;2.47;;;9.20;99.90;;;;;;5040309;28;20086;-45
2021/05/24 03:36:57;;;;;;;5.28;2.35;;;9.30;99.90;;;;;;5041035;28;20022;-46
2021/05/24 03:39:23;;;;;;;7.03;2.78;;;9.30;99.90;;;;;;5038657;28;20111;-49
2021/05/24 03:41:48;;;;;;;5.07;2.58;;;9.40;99.90;;;;;;5041814;28;20017;-47
2021/05/24 03:44:14;;;;;;;4.47;2.50;;;9.40;99.90;;;;;;5040368;28;20040;-46
2021/05/24 03:46:39;;;;;;;4.32;2.38;;;9.30;99.90;;;;;;5037256;28;20163;-45
2021/05/24 03:49:05;;;;;;;7.53;2.47;;;9.40;99.90;;;;;;5038908;28;20237;-45
2021/05/24 03:51:31;;;;;;;3.08;2.25;;;9.40;99.90;;;;;;5040868;28;20036;-46
2021/05/24 03:53:58;;;;;;;5.57;1.90;;;9.40;99.90;;;;;;5039750;28;20072;-45
2021/05/24 03:56:24;;;;;;;3.47;2.25;;;9.40;99.90;;;;;;5040049;28;20025;-46
2021/05/24 03:58:49;;;;;;;4.57;2.30;;;9.40;99.90;;;;;;5040401;28;20540;-46
2021/05/24 04:01:16;;;;;;;5.78;2.13;;;9.50;99.90;;;;;;5038206;28;20040;-46
2021/05/24 04:03:44;;;;;;;4.03;1.90;;;9.50;99.90;;;;;;5040225;28;20032;-45
2021/05/24 04:06:12;;;;;;;3.88;2.30;;;9.50;99.90;;;;;;5038581;28;20182;-47
2021/05/24 04:08:45;;;;;;;2.25;1.88;;;9.60;99.90;;;;;;5039373;28;20490;-45
2021/05/24 04:11:13;;;;;;;5.35;2.30;;;9.70;99.90;;;;;;5038503;28;20018;-46
2021/05/24 04:13:40;;;;;;;2.70;1.98;;;9.60;99.90;;;;;;5040969;28;20168;-46
2021/05/24 04:16:06;;;;;;;2.70;2.08;;;9.70;99.90;;;;;;5041100;28;20462;-48
2021/05/24 04:18:33;;;;;;;5.22;2.30;;;9.60;99.90;;;;;;5022809;28;20068;-46
2021/05/24 04:21:01;;;;;;;7.00;2.33;;;9.60;99.90;;;;;;5035828;28;20024;-47
2021/05/24 04:23:27;;;;;;;4.43;2.28;;;9.60;99.90;;;;;;5030156;28;20060;-45
2021/05/24 04:25:52;;;;;;;3.42;2.55;;;9.70;99.90;;;;;;5029821;28;20053;-45
2021/05/24 04:28:18;;;;;;;7.65;2.40;;;9.80;99.90;;;;;;5028903;28;20482;-46
2021/05/24 04:30:43;;;;;;;3.90;1.73;;;9.80;99.90;;;;;;5029883;28;20040;-45
2021/05/24 04:33:09;;;;;;;3.63;1.55;;;9.90;99.90;;;;;;5029916;28;20617;-45
2021/05/24 04:35:35;;;;;;;5.10;1.83;;;9.90;99.90;;;;;;5029780;28;20650;-46
2021/05/24 04:38:01;;;;;;;4.72;1.88;;;10.00;99.90;;;;;;5027554;28;20021;-46
2021/05/24 04:40:27;;;;;;;3.08;1.90;;;10.00;99.90;;;;;;5027932;28;20036;-45
2021/05/24 04:42:54;;;;;;;9.98;2.00;;;10.10;99.90;;;;;;5027545;28;20388;-44
2021/05/24 04:45:19;;;;;;;2.55;1.70;;;10.20;99.90;;;;;;5029468;28;20025;-45
2021/05/24 04:47:45;;;;;;;3.20;1.80;;;10.30;99.90;;;;;;5028725;28;20032;-45
2021/05/24 04:50:11;;;;;;;3.83;1.58;;;10.30;99.90;;;;;;5028905;28;20113;-45
2021/05/24 04:52:37;;;;;;;2.33;1.48;;;10.40;99.90;;;;;;5029460;28;20147;-46
2021/05/24 04:55:05;;;;;;;2.10;1.50;;;10.50;99.90;;;;;;5029450;28;20025;-46
2021/05/24 04:57:31;;;;;;;1.73;1.38;;;10.50;99.90;;;;;;5028422;28;20045;-46
2021/05/24 04:59:56;;;;;;;1.92;1.38;;;10.60;99.90;;;;;;5027880;28;20032;-46
2021/05/24 05:02:22;;;;;;;1.77;1.20;;;10.60;99.90;;;;;;5029019;28;20048;-45
2021/05/24 05:04:47;;;;;;;3.30;1.75;;;10.70;99.90;;;;;;5029195;28;20029;-46
2021/05/24 05:07:13;;;;;;;4.65;1.70;;;10.70;99.90;;;;;;5029026;28;20030;-45
2021/05/24 05:09:38;;;;;;;3.40;1.73;;;10.80;99.90;;;;;;5028591;28;20040;-46
2021/05/24 05:12:04;;;;;;;2.08;1.50;;;10.80;99.90;;;;;;5028351;28;20509;-46
2021/05/24 05:14:30;;;;;;;2.78;1.75;;;10.80;99.90;;;;;;5028997;28;20215;-46
2021/05/24 05:16:55;;;;;;;3.83;1.80;;;10.90;99.90;;;;;;5028895;28;20030;-46
2021/05/24 05:19:21;;;;;;;4.10;1.42;;;11.00;99.90;;;;;;5028434;28;20104;-46
2021/05/24 05:21:48;;;;;;;1.90;1.50;;;11.00;99.90;;;;;;5028775;28;20075;-46
2021/05/24 05:24:15;;;;;;;6.95;2.38;;;11.20;99.90;;;;;;5028801;28;20336;-45
2021/05/24 05:26:41;;;;;;;3.78;1.40;;;11.30;99.90;;;;;;5029002;28;20053;-45
2021/05/24 05:29:07;;;;;;;5.07;1.40;;;11.40;99.90;;;;;;5026716;28;20025;-46
2021/05/24 05:31:32;;;;;;;4.22;1.75;;;11.50;99.90;;;;;;5037526;28;20468;-46
2021/05/24 05:33:58;;;;;;;1.95;1.27;;;11.60;99.90;;;;;;5038464;28;20524;-46
2021/05/24 05:36:25;;;;;;;2.60;1.80;;;11.70;99.90;;;;;;5039208;28;20021;-46
2021/05/24 05:38:50;;;;;;;3.13;1.63;;;11.80;99.90;;;;;;5037086;28;20013;-46
2021/05/24 05:41:17;;;;;;;5.50;1.30;;;11.90;99.90;;;;;;5038053;28;20473;-47
2021/05/24 05:43:42;;;;;;;4.72;1.70;;;11.90;99.90;;;;;;5039219;28;20027;-46
2021/05/24 05:46:09;;;;;;;2.38;1.35;;;11.90;99.90;;;;;;5037123;28;20021;-45
2021/05/24 05:48:35;;;;;;;3.58;1.55;;;11.90;99.90;;;;;;5037313;28;20017;-45
2021/05/24 05:51:00;;;;;;;3.20;1.38;;;12.00;99.90;;;;;;5037475;28;20074;-46
2021/05/24 05:53:26;;;;;;;1.77;1.30;;;12.10;99.90;;;;;;5036884;28;20066;-46
2021/05/24 05:55:52;;;;;;;3.20;1.60;;;12.10;99.90;;;;;;5038257;28;20026;-45
2021/05/24 05:58:19;;;;;;;5.18;1.70;;;12.20;99.90;;;;;;5046608;28;20366;-46
2021/05/24 06:00:44;;;;;;;4.38;1.35;;;12.30;99.90;;;;;;5048324;28;20025;-45
2021/05/24 06:03:11;;;;;;;4.07;1.45;;;12.40;99.90;;;;;;5039090;28;20028;-45
2021/05/24 06:05:37;;;;;;;3.72;1.75;;;12.50;99.90;;;;;;5035854;28;20029;-45
2021/05/24 06:08:03;;;;;;;2.85;1.55;;;12.70;99.90;;;;;;5034137;28;20032;-46
2021/05/24 06:10:28;;;;;;;2.72;1.45;;;12.80;99.90;;;;;;5046446;28;20029;-46
2021/05/24 06:12:54;;;;;;;3.92;1.30;;;12.80;99.90;;;;;;5047887;28;20021;-46
2021/05/24 06:15:19;;;;;;;2.20;1.50;;;12.90;99.90;;;;;;5047884;28;20025;-47
2021/05/24 06:17:45;;;;;;;2.63;1.20;;;13.00;99.90;;;;;;5047663;28;20109;-47
2021/05/24 06:20:11;;;;;;;2.13;1.10;;;13.10;99.90;;;;;;5048343;28;20025;-46
2021/05/24 06:22:38;;;;;;;5.63;1.48;;;13.20;99.90;;;;;;5048972;28;20268;-46
2021/05/24 06:25:04;;;;;;;1.40;1.10;;;13.30;99.90;;;;;;5052129;28;20399;-47
2021/05/24 06:27:30;;;;;;;1.60;1.02;;;13.30;99.90;;;;;;5051279;28;20037;-46
2021/05/24 06:29:55;;;;;;;1.90;1.10;;;13.40;99.90;;;;;;5051644;28;20094;-47
2021/05/24 06:32:21;;;;;;;4.45;1.20;;;13.50;99.90;;;;;;5051779;28;20021;-47
2021/05/24 06:34:46;;;;;;;2.08;0.90;;;13.60;99.90;;;;;;5048284;28;20487;-46
2021/05/24 06:37:12;;;;;;;2.40;0.95;;;13.70;99.90;;;;;;5032026;28;20025;-46
2021/05/24 06:39:37;;;;;;;2.92;1.08;;;13.90;99.90;;;;;;5036988;28;20543;-48
2021/05/24 06:42:03;;;;;;;6.95;1.80;;;14.10;99.90;;;;;;5039889;28;20053;-46
2021/05/24 06:44:29;;;;;;;2.00;1.00;;;14.20;99.90;;;;;;5031626;28;20083;-48
2021/05/24 06:46:54;;;;;;;2.80;1.20;;;14.20;99.90;;;;;;5038510;28;20033;-47
2021/05/24 06:49:20;;;;;;;2.38;1.05;;;14.30;99.90;;;;;;5030641;28;20065;-47
2021/05/24 06:51:47;;;;;;;2.42;1.02;;;14.40;99.90;;;;;;5031480;28;20030;-47
2021/05/24 06:54:12;;;;;;;4.35;1.30;;;14.60;99.90;;;;;;5031849;28;20104;-47
2021/05/24 06:56:38;;;;;;;2.80;1.42;;;14.60;99.90;;;;;;5031509;28;20116;-47
2021/05/24 06:59:04;;;;;;;1.95;0.98;;;14.70;99.90;;;;;;5030721;28;20028;-47
2021/05/24 07:01:29;;;;;;;2.72;1.38;;;14.80;99.90;;;;;;5031660;28;20378;-47
2021/05/24 07:03:55;;;;;;;1.85;1.17;;;14.90;99.90;;;;;;5030738;28;20029;-47
2021/05/24 07:06:20;;;;;;;3.33;1.15;;;15.00;99.90;;;;;;5031693;28;20159;-47
2021/05/24 07:08:46;;;;;;;3.53;1.15;;;15.10;99.90;;;;;;5030200;28;20524;-46
2021/05/24 07:11:11;;;;;;;3.88;1.20;;;15.20;99.90;;;;;;5030884;28;20033;-46
2021/05/24 07:13:37;;;;;;;2.38;1.10;;;15.30;99.40;;;;;;5031043;28;20029;-46
2021/05/24 07:16:02;;;;;;;1.33;0.90;;;15.40;99.80;;;;;;5031162;28;20506;-46
2021/05/24 07:18:28;;;;;;;1.45;0.90;;;15.50;99.40;;;;;;5039624;28;20115;-47
2021/05/24 07:20:53;;;;;;;3.63;1.35;;;15.60;98.60;;;;;;5051353;28;20047;-46
2021/05/24 07:23:19;;;;;;;4.95;1.13;;;15.70;98.60;;;;;;5051155;28;20028;-46
2021/05/24 07:25:44;;;;;;;1.70;0.95;;;15.80;97.10;;;;;;5051068;28;20032;-49
2021/05/24 07:28:10;;;;;;;1.77;1.20;;;15.90;97.10;;;;;;5050706;28;20552;-48
2021/05/24 07:30:35;;;;;;;2.03;1.00;;;16.00;96.20;;;;;;5051130;28;20024;-45
2021/05/24 07:33:01;;;;;;;2.90;1.38;;;16.10;96.70;;;;;;5049286;28;20071;-46
2021/05/24 07:35:27;;;;;;;2.17;1.10;;;16.20;95.50;;;;;;5050126;28;20033;-47
2021/05/24 07:37:53;;;;;;;1.63;0.93;;;16.30;94.30;;;;;;5049621;28;20083;-46
2021/05/24 07:40:19;;;;;;;3.35;0.90;;;16.40;94.20;;;;;;5049021;28;20108;-46
2021/05/24 07:42:45;;;;;;;1.90;1.42;;;16.60;94.60;;;;;;5034352;28;20108;-46
2021/05/24 07:45:11;;;;;;;2.38;1.00;;;16.70;91.80;;;;;;5030138;28;20021;-47
2021/05/24 07:47:36;;;;;;;2.08;0.75;;;16.80;91.50;;;;;;5029931;28;20033;-46
2021/05/24 07:50:04;;;;;;;2.33;1.00;;;17.00;90.80;;;;;;5029321;28;20411;-46
2021/05/24 07:52:29;;;;;;;4.18;1.00;;;17.10;91.80;;;;;;5030106;28;20029;-46
2021/05/24 07:54:55;;;;;;;4.18;1.10;;;17.30;91.20;;;;;;5029209;28;20036;-46
2021/05/24 07:57:20;;;;;;;2.35;0.95;;;17.50;90.60;;;;;;5030550;28;20021;-46
2021/05/24 07:59:47;;;;;;;1.88;0.93;;;17.50;90.40;;;;;;5028883;28;20029;-46
2021/05/24 08:02:12;;;;;;;1.77;0.90;;;17.60;89.50;;;;;;5030541;28;20026;-46
2021/05/24 08:04:38;;;;;;;4.57;1.10;;;17.70;87.20;;;;;;5030410;28;20495;-47
2021/05/24 08:07:03;;;;;;;2.80;1.20;;;17.80;87.10;;;;;;5030332;28;20107;-45
2021/05/24 08:09:30;;;;;;;2.03;0.98;;;18.10;85.10;;;;;;5029721;28;20418;-45
2021/05/24 08:11:55;;;;;;;1.90;0.80;;;18.40;84.50;;;;;;5030530;28;20152;-46
2021/05/24 08:14:22;;;;;;;1.08;0.85;;;18.50;80.30;;;;;;5030189;28;20109;-45
2021/05/24 08:16:48;;;;;;;7.53;1.08;;;19.10;81.90;;;;;;5030249;28;20021;-46
2021/05/24 08:19:15;;;;;;;0.68;0.60;;;19.60;74.60;;;;;;5029292;28;20037;-47
2021/05/24 08:21:44;;;;;;;6.18;1.02;;;20.20;71.60;;;;;;5030051;28;20068;-46
2021/05/24 08:24:11;;;;;;;1.97;0.90;;;21.10;68.10;;;;;;5030252;28;20273;-47
2021/05/24 08:26:37;;;;;;;1.98;0.70;;;21.60;63.20;;;;;;5030196;28;20272;-46
2021/05/24 08:29:02;;;;;;;2.03;0.80;;;22.60;59.40;;;;;;5029622;28;20374;-47
2021/05/24 08:31:28;;;;;;;1.42;1.10;;;23.00;59.10;;;;;;5029920;28;20391;-47
2021/05/24 08:33:54;;;;;;;2.65;0.75;;;23.20;55.90;;;;;;5029843;28;20108;-48
2021/05/24 08:36:19;;;;;;;4.80;1.00;;;24.50;56.00;;;;;;5029860;28;20031;-47
2021/05/24 08:38:44;;;;;;;2.63;0.80;;;25.90;50.10;;;;;;5029089;28;20041;-47
2021/05/24 08:41:10;;;;;;;1.98;1.00;;;26.10;47.20;;;;;;5029937;28;20365;-47
2021/05/24 08:43:38;;;;;;;3.10;1.00;;;26.20;45.80;;;;;;5029025;28;20080;-50
2021/05/24 08:46:04;;;;;;;2.60;0.70;;;25.90;46.50;;;;;;5028946;28;20475;-47
2021/05/24 08:48:30;;;;;;;1.33;0.60;;;27.80;43.80;;;;;;5029169;28;20028;-46
2021/05/24 08:50:56;;;;;;;3.28;0.75;;;26.80;42.50;;;;;;5029347;28;20044;-48
2021/05/24 08:53:22;;;;;;;1.40;0.80;;;26.50;43.50;;;;;;5029276;28;20041;-47
2021/05/24 08:55:48;;;;;;;2.03;0.60;;;26.70;44.50;;;;;;5027995;28;20445;-47
2021/05/24 08:58:14;;;;;;;1.67;0.93;;;27.90;41.80;;;;;;5028612;28;20052;-47
2021/05/24 09:00:39;;;;;;;1.00;0.70;;;27.20;41.30;;;;;;5029532;28;20191;-48
2021/05/24 09:03:20;;;;;;;1.38;0.77;;;27.10;42.90;;;;;;5029758;28;20025;-47
2021/05/24 09:05:46;;;;;;;1.17;0.80;;;27.40;42.10;;;;;;5029352;28;20443;-47
2021/05/24 09:08:12;;;;;;;2.80;0.88;;;27.80;42.00;;;;;;5028440;28;20025;-47
2021/05/24 09:10:41;;;;;;;1.30;0.93;;;27.20;41.10;;;;;;5028856;28;20387;-47
2021/05/24 09:13:11;;;;;;;1.65;1.08;;;27.70;41.40;;;;;;5028980;28;20060;-47
2021/05/24 09:15:40;;;;;;;1.38;0.68;;;27.10;42.60;;;;;;5031045;28;20072;-47
2021/05/24 09:18:09;;;;;;;1.33;0.70;;;26.70;40.70;;;;;;5039962;28;20052;-48
2021/05/24 09:20:46;;;;;;;13.57;1.15;;;27.50;39.30;;;;;;5040750;28;20013;-50
2021/05/24 09:23:29;;;;;;;2.13;0.88;;;26.80;38.70;;;;;;5041745;28;20374;-48
2021/05/24 09:26:10;;;;;;;1.77;0.52;;;26.20;40.10;;;;;;5039051;28;20025;-50
2021/05/24 09:28:43;;;;;;;2.42;0.80;;;26.60;40.40;;;;;;5035211;28;20051;-48
2021/05/24 09:31:18;;;;;;;1.33;0.52;;;27.80;39.60;;;;;;5034659;28;20590;-47
2021/05/24 09:33:53;;;;;;;0.77;0.60;;;28.10;38.90;;;;;;5037739;28;20021;-47
2021/05/24 09:36:19;;;;;;;1.80;0.60;;;28.20;35.10;;;;;;5037266;28;20013;-47
2021/05/24 09:38:47;;;;;;;1.40;0.55;;;28.10;36.10;;;;;;5030493;28;20071;-47
2021/05/24 09:41:16;;;;;;;1.70;0.63;;;29.00;34.40;;;;;;5028446;28;20041;-47
2021/05/24 09:43:48;;;;;;;1.65;0.60;;;27.90;35.70;;;;;;5028515;28;20021;-47
2021/05/24 09:46:19;;;;;;;1.15;0.60;;;27.40;35.60;;;;;;5032936;28;20079;-48
2021/05/24 09:49:00;;;;;;;4.50;0.60;;;27.10;37.50;;;;;;5035857;28;20029;-46
2021/05/24 09:51:28;;;;;;;0.82;0.60;;;26.30;36.70;;;;;;5035335;28;20064;-47
2021/05/24 09:54:04;;;;;;;1.10;0.68;;;27.20;39.00;;;;;;5036486;28;20044;-48
2021/05/24 09:56:32;;;;;;;1.52;0.82;;;27.10;36.70;;;;;;5036668;28;20021;-47
2021/05/24 09:59:09;;;;;;;3.95;0.90;;;24.70;39.50;;;;;;5042652;28;20083;-50
2021/05/24 10:01:41;;;;;;;0.77;0.65;;;23.30;40.60;;;;;;5042339;28;20014;-46
2021/05/24 10:04:09;;;;;;;1.55;0.90;;;22.60;42.50;;;;;;5049615;28;20108;-50
2021/05/24 10:06:36;;;;;;;3.60;0.70;;;22.50;43.20;;;;;;5050446;28;20020;-49
2021/05/24 10:09:04;;;;;;;1.38;0.60;;;23.40;43.80;;;;;;5050048;28;20017;-47
2021/05/24 10:11:30;;;;;;;1.20;0.57;;;23.80;41.60;;;;;;5050809;28;20016;-46
2021/05/24 10:13:57;;;;;;;2.35;0.47;;;22.90;41.70;;;;;;5054803;28;20024;-47
2021/05/24 10:16:26;;;;;;;0.95;0.45;;;22.90;42.20;;;;;;5054640;28;20201;-46
2021/05/24 10:18:52;;;;;;;0.50;0.50;;;24.20;42.70;;;;;;5046798;28;20044;-47
2021/05/24 10:21:18;;;;;;;2.50;0.77;;;24.10;41.70;;;;;;5045801;28;20514;-49
2021/05/24 10:23:44;;;;;;;1.08;0.77;;;23.30;42.10;;;;;;5043717;28;20546;-47
2021/05/24 10:26:11;;;;;;;1.10;0.82;;;24.10;42.20;;;;;;5041112;28;20519;-47
2021/05/24 10:28:38;;;;;;;1.77;0.77;;;23.40;43.00;;;;;;5042675;28;20557;-49
2021/05/24 10:31:17;;;;;;;1.77;0.90;;;23.30;43.00;;;;;;5044967;28;20027;-47
2021/05/24 10:33:44;;;;;;;3.00;0.70;;;24.60;42.60;;;;;;5047969;28;20482;-47
2021/05/24 10:36:22;;;;;;;1.00;0.80;;;25.50;39.40;;;;;;5051520;28;20025;-50
2021/05/24 10:39:19;;;;;;;2.20;0.77;;;24.20;39.90;;;;;;5042091;28;20036;-46
2021/05/24 10:41:58;;;;;;;2.78;0.80;;;23.70;42.50;;;;;;5031283;28;20468;-48
2021/05/24 10:44:35;;;;;;;1.48;0.70;;;22.50;42.60;;;;;;5049396;28;20052;-46
2021/05/24 10:47:20;;;;;;;1.95;0.73;;;22.30;42.40;;;;;;5043979;28;20023;-46
2021/05/24 10:50:05;;;;;;;1.48;0.85;;;23.70;41.10;;;;;;5042012;28;20078;-46
2021/05/24 10:52:39;;;;;;;1.67;0.80;;;24.40;39.90;;;;;;5040502;28;20040;-47
2021/05/24 10:55:27;;;;;;;0.98;0.70;;;25.50;39.90;;;;;;5044367;28;20405;-47
2021/05/24 10:58:09;;;;;;;0.85;0.50;;;25.20;37.90;;;;;;5042572;28;20100;-46
2021/05/24 11:00:51;;;;;;;3.53;0.90;;;25.40;40.60;;;;;;5044443;28;20017;-46
2021/05/24 11:03:17;;;;;;;1.77;0.70;;;25.20;39.50;;;;;;5046987;28;20026;-46
2021/05/24 11:05:47;;;;;;;4.32;0.80;;;25.70;38.50;;;;;;5045538;28;20025;-46
2021/05/24 11:08:25;;;;;;;1.55;0.80;;;25.30;39.30;;;;;;5046911;28;20021;-46
2021/05/24 11:10:51;;;;;;;1.38;0.55;;;24.90;39.60;;;;;;5041842;28;20563;-46
2021/05/24 11:13:21;;;;;;;2.75;0.80;;;25.10;40.10;;;;;;5048136;28;20124;-46
2021/05/24 11:15:47;;;;;;;1.23;0.73;;;25.20;39.80;;;;;;5036712;28;20037;-48
2021/05/24 11:18:19;;;;;;;2.97;0.70;;;25.90;39.00;;;;;;5042323;28;20025;-46
2021/05/24 11:20:51;;;;;;;1.38;0.63;;;26.50;38.60;;;;;;5045580;28;20025;-46
2021/05/24 11:23:43;;;;;;;2.70;0.95;;;26.80;38.20;;;;;;5042776;28;20422;-46
2021/05/24 11:26:14;;;;;;;1.85;0.80;;;26.30;37.60;;;;;;5049158;28;20036;-49
2021/05/24 11:28:40;;;;;;;1.55;0.60;;;25.50;38.00;;;;;;5048795;28;20382;-47
2021/05/24 11:31:13;;;;;;;2.38;0.70;;;25.90;38.40;;;;;;5047389;28;20179;-46
2021/05/24 11:33:49;;;;;;;1.33;0.80;;;24.40;38.30;;;;;;5050976;28;20043;-46
2021/05/24 11:36:33;;;;;;;2.15;0.73;;;23.90;40.70;;;;;;5050285;28;20387;-46
2021/05/24 11:39:12;;;;;;;3.30;0.73;;;23.50;42.00;;;;;;5049646;28;20108;-47
2021/05/24 11:41:57;;;;;;;2.08;0.70;;;23.00;43.40;;;;;;5050034;28;20017;-47
2021/05/24 11:44:25;;;;;;;1.48;0.63;;;23.30;42.70;;;;;;5041954;28;20013;-49
2021/05/24 11:46:56;;;;;;;2.45;0.80;;;23.30;42.30;;;;;;5030253;28;20033;-49
2021/05/24 11:49:33;;;;;;;1.33;0.80;;;22.20;43.00;;;;;;5029813;28;20025;-47
2021/05/24 11:51:58;;;;;;;1.70;0.80;;;22.90;43.80;;;;;;5030765;28;20505;-47
2021/05/24 11:54:26;;;;;;;1.08;0.77;;;22.90;42.80;;;;;;5029892;28;20049;-49
2021/05/24 11:56:58;;;;;;;2.08;0.85;;;23.20;43.20;;;;;;5030523;28;20013;-46
2021/05/24 11:59:26;;;;;;;0.60;0.60;;;24.30;43.50;;;;;;5036375;28;20025;-47
2021/05/24 12:01:53;;;;;;;4.50;0.60;;;25.30;41.50;;;;;;5037158;28;20455;-48
2021/05/24 12:04:25;;;;;;;2.08;0.77;;;25.70;42.00;;;;;;5040499;28;20108;-50
2021/05/24 12:07:05;;;;;;;1.02;0.57;;;24.80;40.00;;;;;;5036065;28;20018;-49
2021/05/24 12:09:38;;;;;;;1.50;0.70;;;24.50;40.70;;;;;;5029051;28;20017;-46
2021/05/24 12:12:15;;;;;;;0.80;0.60;;;24.40;42.50;;;;;;5041951;28;20096;-46
2021/05/24 12:14:47;;;;;;;3.65;0.73;;;24.20;40.90;;;;;;5042191;28;20475;-47
2021/05/24 12:17:22;;;;;;;5.10;1.80;;;23.30;41.80;;;;;;5034410;28;20025;-46
2021/05/24 12:19:52;;;;;;;0.90;0.70;;;22.50;44.00;;;;;;5040604;28;20507;-46
2021/05/24 12:22:18;;;;;;;;;;;22.70;44.40;;;;;;5036904;28;20030;-48
2021/05/24 12:24:46;;;;;;;2.17;0.85;;;22.80;44.30;;;;;;5038568;28;20367;-47
2021/05/24 12:27:14;;;;;;;2.28;0.80;;;23.30;43.90;;;;;;5041083;28;20040;-48
2021/05/24 12:29:51;;;;;;;0.73;0.70;;;23.10;41.70;;;;;;5038142;28;20257;-47
2021/05/24 12:32:37;;;;;;;1.02;0.70;;;23.00;42.80;;;;;;5045809;28;20094;-46
2021/05/24 12:35:11;;;;;;;2.47;0.90;;;23.00;42.70;;;;;;5050006;28;20021;-46
2021/05/24 12:37:39;;;;;;;1.60;0.85;;;22.30;43.50;;;;;;5049479;28;20051;-49
2021/05/24 12:40:07;;;;;;;1.30;0.88;;;22.30;44.40;;;;;;5049607;28;20429;-47
2021/05/24 12:42:34;;;;;;;1.75;0.70;;;22.50;44.60;;;;;;5049589;28;20028;-49
2021/05/24 12:45:05;;;;;;;1.58;0.70;;;22.40;44.60;;;;;;5036834;28;20191;-47
2021/05/24 12:47:30;;;;;;;4.68;0.90;;;22.80;44.80;;;;;;5029057;28;20402;-47
2021/05/24 12:49:55;;;;;;;2.28;0.70;;;23.10;43.80;;;;;;5029484;28;20040;-47
2021/05/24 12:52:21;;;;;;;1.67;0.90;;;23.30;44.20;;;;;;5029464;28;20108;-47
2021/05/24 12:54:50;;;;;;;1.52;0.68;;;23.50;43.10;;;;;;5028878;28;20029;-46